Time;durP1;ratioP1;P1;durP2;ratioP2;P2;SDS_P1;SDS_P2;PMS_P1;PMS_P2;Temp;Humidity;BMP_temperature;BMP_pressure;BME280_temperature;BME280_humidity;BME280_pressure;Samples;Min_cycle;Max_cycle;Signal;HPM_P1;HPM_P2
2021/08/27 00:00:32;;;;;;;0.70;0.50;;;14.20;99.90;;;;;;5015869;28;20164;-74
2021/08/27 00:02:58;;;;;;;1.00;0.60;;;14.10;99.90;;;;;;5014551;28;20587;-74
2021/08/27 00:05:24;;;;;;;0.70;0.50;;;14.10;99.90;;;;;;5014262;28;20172;-73
2021/08/27 00:07:49;;;;;;;0.70;0.50;;;14.10;99.90;;;;;;5014637;28;20220;-74
2021/08/27 00:10:15;;;;;;;0.70;0.60;;;14.10;99.90;;;;;;5015741;28;20168;-73
2021/08/27 00:12:40;;;;;;;0.70;0.50;;;14.10;99.90;;;;;;5015680;28;20161;-74
2021/08/27 00:15:07;;;;;;;0.90;0.60;;;14.00;99.90;;;;;;5015374;28;20208;-73
2021/08/27 00:17:33;;;;;;;0.70;0.50;;;14.00;99.90;;;;;;5015270;28;20200;-73
2021/08/27 00:19:59;;;;;;;1.13;0.60;;;14.00;99.90;;;;;;5015487;28;20458;-74
2021/08/27 00:22:28;;;;;;;0.70;0.50;;;14.00;99.90;;;;;;5015410;28;20183;-73
2021/08/27 00:24:54;;;;;;;0.70;0.50;;;14.00;99.90;;;;;;5015137;28;20439;-77
2021/08/27 00:27:20;;;;;;;5.03;0.77;;;14.00;99.90;;;;;;5014970;28;20403;-73
2021/08/27 00:29:46;;;;;;;0.70;0.60;;;14.00;99.90;;;;;;5015324;28;20927;-74
2021/08/27 00:32:12;;;;;;;0.80;0.80;;;14.10;99.90;;;;;;5015311;28;20542;-73
2021/08/27 00:34:38;;;;;;;2.30;2.20;;;14.10;99.90;;;;;;5015187;28;20169;-74
2021/08/27 00:37:04;;;;;;;1.13;1.03;;;14.10;99.90;;;;;;5014974;28;21145;-73
2021/08/27 00:39:31;;;;;;;0.70;0.60;;;14.10;99.90;;;;;;5014983;28;20707;-73
2021/08/27 00:41:56;;;;;;;0.70;0.50;;;14.10;99.90;;;;;;5015169;28;20430;-73
2021/08/27 00:44:22;;;;;;;0.70;0.60;;;14.10;99.90;;;;;;5015070;28;20411;-75
2021/08/27 00:46:48;;;;;;;0.70;0.50;;;14.10;99.90;;;;;;5014677;28;20176;-74
2021/08/27 00:49:15;;;;;;;0.70;0.60;;;14.10;99.90;;;;;;5013665;28;20206;-74
2021/08/27 00:51:41;;;;;;;0.70;0.50;;;14.20;99.90;;;;;;5014976;28;20172;-74
2021/08/27 00:54:07;;;;;;;0.70;0.50;;;14.20;99.90;;;;;;5015004;28;20773;-74
2021/08/27 00:56:32;;;;;;;0.70;0.50;;;14.20;99.90;;;;;;5014472;28;20438;-75
2021/08/27 00:58:58;;;;;;;0.70;0.50;;;14.30;99.90;;;;;;5014696;28;20207;-73
2021/08/27 01:01:25;;;;;;;0.80;0.80;;;14.30;99.90;;;;;;5014743;28;20168;-72
2021/08/27 01:03:50;;;;;;;1.73;1.63;;;14.30;99.90;;;;;;5013473;28;21094;-73
2021/08/27 01:06:29;;;;;;;0.70;0.50;;;14.30;99.90;;;;;;5014445;28;20415;-73
2021/08/27 01:09:01;;;;;;;0.70;0.60;;;14.40;99.90;;;;;;5019564;28;20634;-74
2021/08/27 01:11:34;;;;;;;0.80;0.60;;;14.40;99.90;;;;;;5034090;28;20505;-75
2021/08/27 01:14:16;;;;;;;0.70;0.50;;;14.40;99.90;;;;;;5034636;28;20931;-73
2021/08/27 01:16:56;;;;;;;0.70;0.70;;;14.40;99.90;;;;;;5033865;28;20395;-73
2021/08/27 01:19:31;;;;;;;1.73;0.73;;;14.40;99.90;;;;;;5034169;28;20800;-73
2021/08/27 01:22:03;;;;;;;0.70;0.50;;;14.50;99.90;;;;;;5032965;28;20965;-73
2021/08/27 01:24:31;;;;;;;2.20;2.10;;;14.50;99.90;;;;;;5034436;28;21113;-71
2021/08/27 01:27:02;;;;;;;0.70;0.50;;;14.40;99.90;;;;;;5033760;28;20395;-73
2021/08/27 01:30:00;;;;;;;0.70;0.50;;;14.50;99.90;;;;;;5033997;28;20461;-72
2021/08/27 01:33:00;;;;;;;0.80;0.60;;;14.60;99.90;;;;;;5033925;28;20907;-72
2021/08/27 01:35:30;;;;;;;2.50;1.17;;;14.60;99.90;;;;;;5033668;28;20899;-74
2021/08/27 01:37:59;;;;;;;0.70;0.70;;;14.50;99.90;;;;;;5033707;28;20422;-77
2021/08/27 01:40:27;;;;;;;0.70;0.60;;;14.60;99.90;;;;;;5033868;28;20460;-73
2021/08/27 01:42:55;;;;;;;0.70;0.50;;;14.50;99.90;;;;;;5033726;28;20410;-74
2021/08/27 01:45:21;;;;;;;0.80;0.60;;;14.50;99.90;;;;;;5033350;28;20444;-74
2021/08/27 01:47:47;;;;;;;8.20;1.17;;;14.50;99.90;;;;;;5032159;28;20437;-74
2021/08/27 01:50:14;;;;;;;0.70;0.60;;;14.50;99.90;;;;;;5033666;28;20402;-73
2021/08/27 01:52:41;;;;;;;0.70;0.50;;;14.40;99.90;;;;;;5033627;28;20175;-75
2021/08/27 01:55:08;;;;;;;0.70;0.50;;;14.40;99.90;;;;;;5031746;28;20427;-74
2021/08/27 01:57:40;;;;;;;0.70;0.50;;;14.40;99.90;;;;;;5033515;28;20433;-74
2021/08/27 02:00:08;;;;;;;0.80;0.60;;;14.40;99.90;;;;;;5033110;28;20456;-72
2021/08/27 02:02:36;;;;;;;1.33;0.70;;;14.30;99.90;;;;;;5033150;28;20402;-73
2021/08/27 02:05:06;;;;;;;1.10;1.03;;;14.30;99.90;;;;;;5031730;28;20438;-72
2021/08/27 02:07:31;;;;;;;6.73;1.67;;;14.30;99.90;;;;;;5033231;28;20423;-72
2021/08/27 02:09:58;;;;;;;0.70;0.50;;;14.30;99.90;;;;;;5033246;28;20767;-73
2021/08/27 02:12:25;;;;;;;0.70;0.50;;;14.30;99.90;;;;;;5033155;28;20237;-72
2021/08/27 02:14:53;;;;;;;0.70;0.50;;;14.30;99.90;;;;;;5031454;28;20464;-73
2021/08/27 02:17:19;;;;;;;0.97;0.87;;;14.30;99.90;;;;;;5033005;28;20410;-73
2021/08/27 02:19:45;;;;;;;0.70;0.50;;;14.30;99.90;;;;;;5032947;28;20449;-74
2021/08/27 02:22:13;;;;;;;0.70;0.50;;;14.20;99.90;;;;;;5033038;28;20753;-74
2021/08/27 02:24:53;;;;;;;0.70;0.50;;;14.20;99.90;;;;;;5031593;28;20407;-73
2021/08/27 02:27:19;;;;;;;0.70;0.50;;;14.20;99.90;;;;;;5032807;28;21179;-73
2021/08/27 02:29:48;;;;;;;0.70;0.50;;;14.20;99.90;;;;;;5032851;28;20464;-73
2021/08/27 02:32:14;;;;;;;0.70;0.50;;;14.20;99.90;;;;;;5032772;28;20402;-72
2021/08/27 02:34:43;;;;;;;0.70;0.50;;;14.20;99.90;;;;;;5032772;28;20934;-73
2021/08/27 02:37:11;;;;;;;0.70;0.50;;;14.20;99.90;;;;;;5032338;28;20229;-73
2021/08/27 02:39:37;;;;;;;0.70;0.50;;;14.20;99.90;;;;;;5032413;28;20446;-74
2021/08/27 02:42:03;;;;;;;0.70;0.50;;;14.20;99.90;;;;;;5031593;28;21005;-72
2021/08/27 02:44:29;;;;;;;1.73;0.70;;;14.20;99.90;;;;;;5031316;28;20167;-73
2021/08/27 02:46:54;;;;;;;0.70;0.50;;;14.20;99.90;;;;;;5032335;28;20520;-73
2021/08/27 02:49:20;;;;;;;1.10;0.60;;;14.20;99.90;;;;;;5031246;28;20273;-72
2021/08/27 02:52:22;;;;;;;0.83;0.83;;;14.20;99.90;;;;;;5032206;28;20171;-73
2021/08/27 02:55:11;;;;;;;0.97;0.90;;;14.20;99.90;;;;;;5032066;28;20459;-74
2021/08/27 02:57:48;;;;;;;0.70;0.50;;;14.10;99.90;;;;;;5031022;28;20442;-72
2021/08/27 03:00:15;;;;;;;1.00;0.90;;;14.20;99.90;;;;;;5032269;28;20529;-73
2021/08/27 03:02:42;;;;;;;0.83;0.73;;;14.10;99.90;;;;;;5032207;28;20452;-72
2021/08/27 03:05:19;;;;;;;0.70;0.50;;;14.10;99.90;;;;;;5032264;28;20513;-72
2021/08/27 03:07:51;;;;;;;0.70;0.50;;;14.10;99.90;;;;;;5032155;28;20430;-73
2021/08/27 03:10:37;;;;;;;0.70;0.50;;;14.20;99.90;;;;;;5031008;28;20414;-73
2021/08/27 03:13:08;;;;;;;0.70;0.60;;;14.20;99.90;;;;;;5031354;28;20504;-72
2021/08/27 03:15:51;;;;;;;0.70;0.50;;;14.20;99.90;;;;;;5031902;28;20437;-73
2021/08/27 03:18:32;;;;;;;0.70;0.50;;;14.30;99.90;;;;;;5032201;28;20458;-72
2021/08/27 03:21:06;;;;;;;0.70;0.50;;;14.30;99.90;;;;;;5032065;28;20399;-72
2021/08/27 03:23:34;;;;;;;0.70;0.50;;;14.30;99.90;;;;;;5032059;28;20386;-72
2021/08/27 03:26:03;;;;;;;0.70;0.50;;;14.40;99.90;;;;;;5031743;28;20978;-72
2021/08/27 03:28:34;;;;;;;0.70;0.50;;;14.40;99.90;;;;;;5030604;28;20437;-72
2021/08/27 03:31:00;;;;;;;1.67;0.90;;;14.40;99.90;;;;;;5032000;28;20413;-72
2021/08/27 03:33:27;;;;;;;1.33;0.97;;;14.40;99.90;;;;;;5031946;28;20415;-73
2021/08/27 03:35:55;;;;;;;0.80;0.80;;;14.40;99.90;;;;;;5031585;28;20474;-74
2021/08/27 03:38:23;;;;;;;0.70;0.50;;;14.40;99.90;;;;;;5031769;28;20457;-72
2021/08/27 03:40:50;;;;;;;4.20;0.70;;;14.40;99.90;;;;;;5031817;28;20801;-73
2021/08/27 03:43:16;;;;;;;1.23;0.70;;;14.50;99.90;;;;;;5031759;28;20952;-73
2021/08/27 03:45:43;;;;;;;0.80;0.60;;;14.50;99.90;;;;;;5031643;28;20406;-72
2021/08/27 03:48:10;;;;;;;0.70;0.50;;;14.60;99.90;;;;;;5031754;28;20418;-73
2021/08/27 03:50:36;;;;;;;0.70;0.60;;;14.60;99.90;;;;;;5031696;28;20739;-73
2021/08/27 03:53:02;;;;;;;0.90;0.57;;;14.60;99.90;;;;;;5031733;28;20403;-73
2021/08/27 03:55:29;;;;;;;0.70;0.60;;;14.60;99.90;;;;;;5031513;28;20422;-73
2021/08/27 03:57:56;;;;;;;0.70;0.50;;;14.60;99.90;;;;;;5031584;28;20430;-74
2021/08/27 04:00:23;;;;;;;0.80;0.60;;;14.60;99.90;;;;;;5030483;28;20783;-73
2021/08/27 04:02:51;;;;;;;0.70;0.50;;;14.60;99.90;;;;;;5031611;28;20390;-72
2021/08/27 04:05:19;;;;;;;0.70;0.50;;;14.60;99.90;;;;;;5031364;28;20398;-73
2021/08/27 04:07:45;;;;;;;0.70;0.50;;;14.60;99.90;;;;;;5031533;28;20418;-73
2021/08/27 04:10:12;;;;;;;0.70;0.50;;;14.70;99.90;;;;;;5031598;28;20394;-72
2021/08/27 04:12:40;;;;;;;0.70;0.50;;;14.60;99.90;;;;;;5031407;28;20444;-73
2021/08/27 04:15:07;;;;;;;0.70;0.50;;;14.70;99.90;;;;;;5031413;28;20745;-74
2021/08/27 04:17:33;;;;;;;0.70;0.50;;;14.70;99.90;;;;;;5030190;28;20429;-72
2021/08/27 04:19:59;;;;;;;0.80;0.60;;;14.60;99.90;;;;;;5030059;28;20854;-74
2021/08/27 04:22:24;;;;;;;1.43;1.33;;;14.60;99.90;;;;;;5031582;28;20186;-74
2021/08/27 04:24:50;;;;;;;0.70;0.50;;;14.70;99.90;;;;;;5033419;28;20172;-75
2021/08/27 04:27:16;;;;;;;0.70;0.50;;;14.60;99.90;;;;;;5034968;28;20246;-75
2021/08/27 04:29:42;;;;;;;0.70;0.50;;;14.60;99.90;;;;;;5017112;28;20415;-76
2021/08/27 04:32:08;;;;;;;0.70;0.50;;;14.70;99.90;;;;;;5014530;28;20793;-74
2021/08/27 04:34:34;;;;;;;0.70;0.50;;;14.70;99.90;;;;;;5033754;28;20202;-73
2021/08/27 04:36:59;;;;;;;0.90;0.90;;;14.70;99.90;;;;;;5033604;28;20414;-73
2021/08/27 04:39:25;;;;;;;0.70;0.50;;;14.70;99.90;;;;;;5034943;28;20199;-73
2021/08/27 04:41:50;;;;;;;0.70;0.50;;;14.60;99.90;;;;;;5034837;28;20222;-73
2021/08/27 04:44:16;;;;;;;0.70;0.50;;;14.70;99.90;;;;;;5034754;28;20258;-75
2021/08/27 04:46:41;;;;;;;0.70;0.50;;;14.60;99.90;;;;;;5034596;28;20229;-74
2021/08/27 04:49:07;;;;;;;0.70;0.50;;;14.60;99.90;;;;;;5034650;28;20188;-72
2021/08/27 04:51:33;;;;;;;0.70;0.50;;;14.60;99.90;;;;;;5033447;28;20265;-73
2021/08/27 04:53:58;;;;;;;0.90;0.90;;;14.60;99.90;;;;;;5034669;28;20167;-75
2021/08/27 04:56:24;;;;;;;0.70;0.50;;;14.60;99.90;;;;;;5034208;28;20574;-73
2021/08/27 04:58:49;;;;;;;1.00;0.93;;;14.60;99.90;;;;;;5034566;28;20249;-73
2021/08/27 05:01:15;;;;;;;0.70;0.60;;;14.60;99.90;;;;;;5034498;28;20522;-74
2021/08/27 05:03:40;;;;;;;0.70;0.60;;;14.60;99.90;;;;;;5033257;28;20168;-73
2021/08/27 05:06:06;;;;;;;0.70;0.50;;;14.60;99.90;;;;;;5034282;28;20164;-73
2021/08/27 05:08:32;;;;;;;0.73;0.57;;;14.60;99.90;;;;;;5034414;28;20198;-73
2021/08/27 05:10:57;;;;;;;0.70;0.50;;;14.50;99.90;;;;;;5034359;28;20247;-73
2021/08/27 05:13:23;;;;;;;1.43;0.70;;;14.60;99.90;;;;;;5034360;28;20581;-76
2021/08/27 05:15:48;;;;;;;0.70;0.60;;;14.60;99.90;;;;;;5034154;28;20582;-73
2021/08/27 05:18:14;;;;;;;0.80;0.50;;;14.60;99.90;;;;;;5034112;28;20592;-72
2021/08/27 05:20:40;;;;;;;0.70;0.50;;;14.60;99.90;;;;;;5034476;28;20186;-73
2021/08/27 05:23:05;;;;;;;0.70;0.50;;;14.60;99.90;;;;;;5034054;28;20441;-73
2021/08/27 05:25:31;;;;;;;0.70;0.50;;;14.60;99.90;;;;;;5033857;28;20168;-76
2021/08/27 05:27:56;;;;;;;0.70;0.50;;;14.60;99.90;;;;;;5032901;28;20666;-74
2021/08/27 05:30:22;;;;;;;0.80;0.60;;;14.70;99.90;;;;;;5034171;28;20560;-72
2021/08/27 05:32:48;;;;;;;0.70;0.50;;;14.70;99.90;;;;;;5033936;28;20164;-74
2021/08/27 05:35:15;;;;;;;0.70;0.50;;;14.80;99.90;;;;;;5032944;28;20187;-74
2021/08/27 05:37:40;;;;;;;0.70;0.50;;;14.80;99.90;;;;;;5033698;28;20449;-72
2021/08/27 05:40:07;;;;;;;0.70;0.60;;;14.90;99.90;;;;;;5032578;28;20990;-74
2021/08/27 05:42:33;;;;;;;0.80;0.70;;;14.80;99.90;;;;;;5033891;28;20277;-73
2021/08/27 05:44:58;;;;;;;1.10;0.83;;;14.80;99.90;;;;;;5033445;28;20407;-72
2021/08/27 05:47:24;;;;;;;0.73;0.57;;;14.80;99.90;;;;;;5033658;28;20195;-74
2021/08/27 05:49:50;;;;;;;1.90;1.80;;;14.80;99.90;;;;;;5033685;28;20172;-73
2021/08/27 05:52:15;;;;;;;0.70;0.50;;;14.90;99.90;;;;;;5032540;28;20172;-73
2021/08/27 05:54:41;;;;;;;0.70;0.50;;;14.90;99.90;;;;;;5033333;28;20402;-73
2021/08/27 05:57:06;;;;;;;0.70;0.50;;;14.90;99.90;;;;;;5033301;28;20194;-74
2021/08/27 05:59:32;;;;;;;0.70;0.50;;;14.90;99.90;;;;;;5033405;28;20207;-75
2021/08/27 06:01:58;;;;;;;0.70;0.50;;;15.00;99.90;;;;;;5033461;28;20182;-74
2021/08/27 06:04:23;;;;;;;1.17;1.00;;;15.00;99.90;;;;;;5032222;28;20406;-74
2021/08/27 06:06:50;;;;;;;0.70;0.60;;;15.00;99.90;;;;;;5031983;28;20164;-74
2021/08/27 06:09:16;;;;;;;0.70;0.60;;;15.00;99.90;;;;;;5033321;28;20188;-74
2021/08/27 06:11:41;;;;;;;0.80;0.70;;;15.10;99.90;;;;;;5033276;28;20561;-75
2021/08/27 06:14:08;;;;;;;1.07;0.60;;;15.20;99.90;;;;;;5033260;28;20171;-74
2021/08/27 06:16:34;;;;;;;0.83;0.80;;;15.20;99.90;;;;;;5032844;28;20172;-75
2021/08/27 06:19:03;;;;;;;0.70;0.50;;;15.20;99.90;;;;;;5033001;28;20460;-75
2021/08/27 06:21:29;;;;;;;0.90;0.90;;;15.30;99.90;;;;;;5033283;28;20633;-75
2021/08/27 06:23:54;;;;;;;0.70;0.50;;;15.30;99.90;;;;;;5032933;28;20402;-74
2021/08/27 06:26:20;;;;;;;1.53;0.77;;;15.40;99.90;;;;;;5032672;28;20159;-75
2021/08/27 06:28:46;;;;;;;0.73;0.70;;;15.40;99.90;;;;;;5032911;28;20188;-73
2021/08/27 06:31:12;;;;;;;0.83;0.80;;;15.50;99.90;;;;;;5033554;28;20171;-75
2021/08/27 06:33:37;;;;;;;0.70;0.60;;;15.60;99.90;;;;;;5040707;28;20175;-76
2021/08/27 06:36:04;;;;;;;0.70;0.50;;;15.70;99.90;;;;;;5040820;28;20497;-75
2021/08/27 06:38:29;;;;;;;0.70;0.50;;;15.70;99.90;;;;;;5041367;28;20191;-76
2021/08/27 06:41:02;;;;;;;0.70;0.60;;;15.70;99.90;;;;;;5041504;28;20497;-74
2021/08/27 06:43:31;;;;;;;0.70;0.50;;;15.80;99.90;;;;;;5033504;28;20245;-75
2021/08/27 06:46:01;;;;;;;0.70;0.50;;;15.80;99.90;;;;;;5031114;28;20787;-73
2021/08/27 06:48:27;;;;;;;0.70;0.50;;;15.80;99.90;;;;;;5032565;28;20794;-73
2021/08/27 06:50:53;;;;;;;0.70;0.60;;;15.80;99.90;;;;;;5032537;28;20411;-74
2021/08/27 06:53:20;;;;;;;0.80;0.60;;;15.80;99.90;;;;;;5032515;28;20402;-74
2021/08/27 06:55:45;;;;;;;0.70;0.50;;;15.80;99.90;;;;;;5032096;28;20422;-75
2021/08/27 06:58:11;;;;;;;0.70;0.50;;;15.80;99.90;;;;;;5032364;28;20756;-74
2021/08/27 07:00:37;;;;;;;3.63;1.83;;;15.80;99.90;;;;;;5032421;28;20210;-73
2021/08/27 07:03:03;;;;;;;0.70;0.50;;;15.80;99.90;;;;;;5032420;28;20171;-75
2021/08/27 07:05:29;;;;;;;0.70;0.50;;;15.80;99.90;;;;;;5032034;28;20398;-75
2021/08/27 07:07:56;;;;;;;0.70;0.50;;;15.80;99.90;;;;;;5032202;28;20422;-75
2021/08/27 07:10:22;;;;;;;0.83;0.83;;;15.80;99.90;;;;;;5032272;28;20189;-75
2021/08/27 07:12:48;;;;;;;0.70;0.50;;;15.80;99.90;;;;;;5030965;28;20406;-74
2021/08/27 07:15:14;;;;;;;0.70;0.50;;;15.90;99.90;;;;;;5031972;28;20168;-75
2021/08/27 07:17:40;;;;;;;1.47;1.37;;;15.90;99.90;;;;;;5032107;28;20414;-75
2021/08/27 07:20:07;;;;;;;0.80;0.70;;;15.90;99.90;;;;;;5031993;28;20987;-75
2021/08/27 07:22:34;;;;;;;0.70;0.50;;;15.90;99.90;;;;;;5032028;28;20447;-75
2021/08/27 07:24:59;;;;;;;0.70;0.50;;;16.00;99.90;;;;;;5031809;28;20411;-75
2021/08/27 07:27:25;;;;;;;0.70;0.50;;;16.10;99.90;;;;;;5031985;28;20413;-76
2021/08/27 07:29:50;;;;;;;0.80;0.63;;;16.10;99.90;;;;;;5042082;28;20201;-75
2021/08/27 07:32:16;;;;;;;2.10;1.90;;;16.10;99.90;;;;;;5042125;28;20210;-76
2021/08/27 07:34:43;;;;;;;0.70;0.50;;;16.20;99.90;;;;;;5042535;28;20173;-76
2021/08/27 07:37:10;;;;;;;0.70;0.50;;;16.20;99.90;;;;;;5038465;28;20198;-75
2021/08/27 07:39:36;;;;;;;0.80;0.70;;;16.20;99.90;;;;;;5031395;28;20453;-74
2021/08/27 07:42:02;;;;;;;0.70;0.50;;;16.40;99.90;;;;;;5031806;28;20468;-74
2021/08/27 07:44:28;;;;;;;0.73;0.53;;;16.30;99.90;;;;;;5030468;28;20414;-75
2021/08/27 07:46:53;;;;;;;0.80;0.60;;;16.40;99.90;;;;;;5030921;28;20417;-75
2021/08/27 07:49:19;;;;;;;0.70;0.50;;;16.50;99.90;;;;;;5030406;28;20567;-74
2021/08/27 07:51:47;;;;;;;0.70;0.50;;;16.50;99.90;;;;;;5034966;28;20191;-76
2021/08/27 07:54:13;;;;;;;0.90;0.90;;;16.50;99.90;;;;;;5034686;28;20171;-73
2021/08/27 07:56:39;;;;;;;0.70;0.50;;;16.50;99.90;;;;;;5030136;28;21064;-74
2021/08/27 07:59:05;;;;;;;0.87;0.60;;;16.50;99.90;;;;;;5032378;28;20540;-74
2021/08/27 08:01:30;;;;;;;0.70;0.50;;;16.40;99.90;;;;;;5038081;28;20196;-76
2021/08/27 08:03:56;;;;;;;0.70;0.50;;;16.40;99.90;;;;;;5040592;28;20178;-76
2021/08/27 08:06:21;;;;;;;2.90;1.60;;;16.50;99.90;;;;;;5038853;28;20513;-75
2021/08/27 08:08:47;;;;;;;0.70;0.60;;;16.50;99.90;;;;;;5035770;28;20191;-76
2021/08/27 08:11:13;;;;;;;0.90;0.70;;;16.50;99.90;;;;;;5040658;28;20179;-76
2021/08/27 08:13:38;;;;;;;0.70;0.60;;;16.60;99.90;;;;;;5041717;28;20171;-76
2021/08/27 08:16:04;;;;;;;0.70;0.60;;;16.60;99.90;;;;;;5040349;28;20183;-74
2021/08/27 08:18:30;;;;;;;0.80;0.73;;;16.70;99.90;;;;;;5042323;28;20345;-75
2021/08/27 08:20:56;;;;;;;1.00;0.83;;;16.80;99.90;;;;;;5043322;28;20187;-76
2021/08/27 08:23:22;;;;;;;2.87;1.10;;;16.90;99.90;;;;;;5040908;28;20436;-74
2021/08/27 08:25:47;;;;;;;0.70;0.50;;;17.00;99.90;;;;;;5035177;28;20422;-77
2021/08/27 08:28:13;;;;;;;0.70;0.50;;;17.10;99.90;;;;;;5035137;28;20190;-74
2021/08/27 08:30:40;;;;;;;2.60;1.07;;;17.20;99.90;;;;;;5033885;28;20221;-75
2021/08/27 08:33:05;;;;;;;0.70;0.50;;;17.30;99.90;;;;;;5035102;28;20398;-75
2021/08/27 08:35:31;;;;;;;0.80;0.80;;;17.40;99.90;;;;;;5034821;28;20448;-75
2021/08/27 08:37:57;;;;;;;1.27;0.73;;;17.50;99.90;;;;;;5034947;28;20665;-75
2021/08/27 08:40:22;;;;;;;1.87;1.07;;;17.60;99.90;;;;;;5034707;28;20227;-75
2021/08/27 08:42:48;;;;;;;0.80;0.60;;;17.60;99.90;;;;;;5034916;28;20163;-75
2021/08/27 08:45:14;;;;;;;0.70;0.50;;;17.70;99.90;;;;;;5034615;28;20195;-75
2021/08/27 08:47:42;;;;;;;0.70;0.50;;;17.90;99.90;;;;;;5033451;28;20462;-75
2021/08/27 08:50:08;;;;;;;0.70;0.50;;;18.00;99.90;;;;;;5034839;28;20213;-75
2021/08/27 08:52:36;;;;;;;1.23;1.13;;;18.10;99.90;;;;;;5034732;28;20402;-75
2021/08/27 08:55:03;;;;;;;0.70;0.50;;;18.30;99.90;;;;;;5038058;28;20426;-76
2021/08/27 08:57:28;;;;;;;0.90;0.70;;;18.30;99.90;;;;;;5037071;28;20414;-75
2021/08/27 08:59:54;;;;;;;0.70;0.50;;;18.40;99.90;;;;;;5034567;28;20961;-74
2021/08/27 09:02:21;;;;;;;0.70;0.60;;;18.50;99.90;;;;;;5036093;28;20163;-77
2021/08/27 09:04:47;;;;;;;0.70;0.50;;;18.60;99.90;;;;;;5040148;28;20430;-76
2021/08/27 09:07:14;;;;;;;0.70;0.50;;;18.70;99.90;;;;;;5041566;28;20418;-75
2021/08/27 09:09:40;;;;;;;0.70;0.50;;;18.90;99.90;;;;;;5036727;28;20176;-76
2021/08/27 09:12:26;;;;;;;0.70;0.50;;;19.20;99.90;;;;;;5033469;28;20409;-76
2021/08/27 09:15:09;;;;;;;0.70;0.50;;;19.90;99.90;;;;;;5032863;28;20410;-76
2021/08/27 09:17:37;;;;;;;0.90;0.60;;;20.30;99.90;;;;;;5031937;28;20434;-76
2021/08/27 09:20:07;;;;;;;0.70;0.50;;;20.60;99.90;;;;;;5034038;28;20480;-77
2021/08/27 09:22:50;;;;;;;1.00;0.70;;;20.90;99.90;;;;;;5036207;28;20414;-78
2021/08/27 09:25:17;;;;;;;0.70;0.50;;;21.70;99.90;;;;;;5034915;28;20406;-76
2021/08/27 09:27:58;;;;;;;0.80;0.60;;;21.70;99.90;;;;;;5033985;28;20949;-76
2021/08/27 09:30:24;;;;;;;0.80;0.60;;;21.50;99.90;;;;;;5033991;28;20425;-76
2021/08/27 09:32:49;;;;;;;1.17;1.03;;;21.20;99.90;;;;;;5034103;28;20407;-75
2021/08/27 09:35:18;;;;;;;0.70;0.50;;;21.10;99.90;;;;;;5034946;28;20186;-77
2021/08/27 09:37:47;;;;;;;0.80;0.60;;;20.80;99.90;;;;;;5036337;28;20197;-77
2021/08/27 09:40:15;;;;;;;0.80;0.67;;;20.60;99.90;;;;;;5036836;28;20462;-76
2021/08/27 09:42:51;;;;;;;0.70;0.60;;;20.40;99.90;;;;;;5038696;28;20405;-76
2021/08/27 09:45:36;;;;;;;0.70;0.50;;;20.20;99.90;;;;;;5036448;28;20923;-75
2021/08/27 09:48:10;;;;;;;0.80;0.60;;;19.90;99.90;;;;;;5033671;28;20682;-75
2021/08/27 09:50:37;;;;;;;0.97;0.70;;;19.60;99.90;;;;;;5033695;28;20751;-75
2021/08/27 09:53:11;;;;;;;0.70;0.60;;;19.90;99.90;;;;;;5033643;28;20395;-75
2021/08/27 09:55:39;;;;;;;0.80;0.60;;;20.00;99.90;;;;;;5036002;28;20414;-77
2021/08/27 09:58:12;;;;;;;0.90;0.60;;;20.30;99.90;;;;;;5036369;28;20430;-77
2021/08/27 10:00:40;;;;;;;0.80;0.80;;;20.70;99.90;;;;;;5032712;28;20410;-76
2021/08/27 10:03:28;;;;;;;0.97;0.70;;;21.60;99.90;;;;;;5033436;28;20810;-77
2021/08/27 10:05:54;;;;;;;0.80;0.50;;;22.70;99.90;;;;;;5033094;28;20756;-75
2021/08/27 10:08:20;;;;;;;1.63;0.70;;;23.40;99.90;;;;;;5033335;28;20406;-76
2021/08/27 10:10:50;;;;;;;1.10;1.00;;;24.00;99.90;;;;;;5031999;28;20413;-76
2021/08/27 10:13:15;;;;;;;0.80;0.60;;;23.90;99.90;;;;;;5032814;28;20402;-76
2021/08/27 10:15:42;;;;;;;0.80;0.50;;;23.60;99.90;;;;;;5032864;28;20391;-76
2021/08/27 10:18:09;;;;;;;0.90;0.60;;;23.20;99.90;;;;;;5031794;28;20238;-76
2021/08/27 10:20:40;;;;;;;0.80;0.50;;;23.00;99.90;;;;;;5033025;28;20428;-76
2021/08/27 10:23:11;;;;;;;1.73;0.87;;;22.80;99.90;;;;;;5032646;28;20854;-76
2021/08/27 10:25:38;;;;;;;0.80;0.50;;;22.30;99.90;;;;;;5032607;28;20760;-75
2021/08/27 10:28:04;;;;;;;0.80;0.60;;;21.80;99.90;;;;;;5031585;28;20426;-75
2021/08/27 10:30:48;;;;;;;0.80;0.53;;;21.70;99.90;;;;;;5037321;28;20481;-76
2021/08/27 10:33:15;;;;;;;1.10;0.70;;;21.50;99.90;;;;;;5035266;28;20418;-77
2021/08/27 10:35:41;;;;;;;0.73;0.50;;;21.20;99.90;;;;;;5036571;28;20814;-75
2021/08/27 10:38:07;;;;;;;0.73;0.50;;;21.10;99.90;;;;;;5036013;28;20433;-76
2021/08/27 10:40:39;;;;;;;2.00;0.70;;;21.10;99.90;;;;;;5033963;28;20453;-75
2021/08/27 10:43:07;;;;;;;1.00;0.90;;;21.00;99.90;;;;;;5032686;28;20168;-76
2021/08/27 10:45:33;;;;;;;1.10;1.00;;;21.00;99.90;;;;;;5031096;28;20414;-75
2021/08/27 10:48:28;;;;;;;0.80;0.50;;;20.80;99.90;;;;;;5029311;28;20981;-75
2021/08/27 10:50:55;;;;;;;0.70;0.50;;;20.90;99.90;;;;;;5021825;28;20271;-76
2021/08/27 10:53:35;;;;;;;0.80;0.50;;;21.10;99.90;;;;;;5012766;28;20426;-76
2021/08/27 10:56:04;;;;;;;0.70;0.50;;;21.50;99.90;;;;;;5015595;28;20422;-77
2021/08/27 10:58:48;;;;;;;0.80;0.60;;;21.70;99.90;;;;;;5013321;28;20467;-76
2021/08/27 11:01:44;;;;;;;0.80;0.50;;;22.10;99.90;;;;;;5012798;28;20396;-75
2021/08/27 11:04:20;;;;;;;0.80;0.60;;;22.40;99.90;;;;;;5011990;28;21004;-76
2021/08/27 11:07:06;;;;;;;0.80;0.60;;;23.00;99.90;;;;;;5012472;28;20437;-76
2021/08/27 11:09:36;;;;;;;0.90;0.60;;;24.00;99.90;;;;;;5012701;28;20518;-76
2021/08/27 11:12:14;;;;;;;0.80;0.50;;;24.30;99.90;;;;;;5012551;28;20925;-75
2021/08/27 11:14:45;;;;;;;0.80;0.50;;;24.20;99.90;;;;;;5013731;28;20743;-77
2021/08/27 11:17:12;;;;;;;0.80;0.50;;;24.10;99.90;;;;;;5013380;28;20415;-77
2021/08/27 11:19:41;;;;;;;1.17;0.60;;;23.80;99.90;;;;;;5014960;28;20450;-75
2021/08/27 11:22:10;;;;;;;0.80;0.60;;;23.50;99.90;;;;;;5012366;28;20415;-76
2021/08/27 11:24:39;;;;;;;0.77;0.50;;;23.60;99.90;;;;;;5014413;28;20438;-78
2021/08/27 11:27:07;;;;;;;0.80;0.50;;;23.40;99.90;;;;;;5013082;28;20423;-75
2021/08/27 11:29:33;;;;;;;0.80;0.50;;;23.90;99.90;;;;;;5010987;28;20442;-75
2021/08/27 11:32:07;;;;;;;0.80;0.50;;;24.50;99.90;;;;;;5012175;28;20407;-76
2021/08/27 11:34:56;;;;;;;1.93;0.60;;;24.50;99.90;;;;;;5010315;28;20179;-76
2021/08/27 11:37:23;;;;;;;0.90;0.70;;;24.40;99.90;;;;;;5012258;28;20773;-74
2021/08/27 11:39:50;;;;;;;0.80;0.60;;;24.30;99.90;;;;;;5012044;28;20458;-75
2021/08/27 11:42:17;;;;;;;0.80;0.70;;;24.10;99.90;;;;;;5010919;28;20469;-75
2021/08/27 11:44:44;;;;;;;0.83;0.57;;;23.30;99.90;;;;;;5012091;28;20414;-76
2021/08/27 11:47:12;;;;;;;0.80;0.50;;;22.80;99.90;;;;;;5011802;28;20413;-76
2021/08/27 11:49:45;;;;;;;0.80;0.60;;;22.50;99.90;;;;;;5012074;28;20407;-76
2021/08/27 11:52:24;;;;;;;0.80;0.50;;;22.30;99.90;;;;;;5012194;28;21074;-76
2021/08/27 11:55:03;;;;;;;0.80;0.50;;;22.00;99.90;;;;;;5011762;28;20561;-75
2021/08/27 11:57:29;;;;;;;0.80;0.60;;;21.90;99.90;;;;;;5011944;28;20505;-76
2021/08/27 12:00:06;;;;;;;0.80;0.60;;;21.80;99.90;;;;;;5011967;28;20891;-76
2021/08/27 12:02:31;;;;;;;0.80;0.57;;;21.70;99.90;;;;;;5011912;28;20904;-76
2021/08/27 12:05:03;;;;;;;0.70;0.50;;;21.80;99.90;;;;;;5011630;28;20434;-76
2021/08/27 12:07:29;;;;;;;1.00;0.70;;;22.30;99.90;;;;;;5011900;28;20512;-76
2021/08/27 12:10:25;;;;;;;0.80;0.50;;;22.70;99.90;;;;;;5011980;28;20990;-76
2021/08/27 12:12:53;;;;;;;0.80;0.60;;;23.20;99.90;;;;;;5006504;28;20777;-76
2021/08/27 12:15:24;;;;;;;0.80;0.50;;;23.80;99.90;;;;;;5010663;28;20442;-77
2021/08/27 12:17:57;;;;;;;1.30;0.90;;;24.40;99.90;;;;;;5012156;28;20430;-77
2021/08/27 12:20:28;;;;;;;1.60;1.20;;;25.00;99.90;;;;;;5012380;28;20956;-77
2021/08/27 12:23:00;;;;;;;0.80;0.60;;;25.30;99.90;;;;;;5011880;28;20966;-76
2021/08/27 12:25:29;;;;;;;0.80;0.63;;;25.20;99.90;;;;;;5011692;28;20418;-75
2021/08/27 12:27:56;;;;;;;0.80;0.60;;;24.40;99.90;;;;;;5011586;28;20795;-74
2021/08/27 12:30:23;;;;;;;0.80;0.60;;;23.60;99.90;;;;;;5011786;28;20956;-75
2021/08/27 12:32:49;;;;;;;1.00;0.83;;;23.00;99.90;;;;;;5010318;28;20653;-74
2021/08/27 12:35:35;;;;;;;0.80;0.50;;;22.40;99.90;;;;;;5011418;28;20407;-74
2021/08/27 12:38:03;;;;;;;0.80;0.70;;;21.90;99.90;;;;;;5011424;28;20489;-74
2021/08/27 12:40:30;;;;;;;1.03;0.93;;;21.60;99.90;;;;;;5011541;28;20960;-74
2021/08/27 12:43:07;;;;;;;0.80;0.60;;;21.30;99.90;;;;;;5011687;28;20461;-74
2021/08/27 12:45:50;;;;;;;0.70;0.50;;;21.20;99.90;;;;;;5013086;28;20802;-74
2021/08/27 12:48:22;;;;;;;0.80;0.60;;;21.00;99.90;;;;;;5015009;28;20427;-74
2021/08/27 12:50:58;;;;;;;0.70;0.50;;;21.10;99.90;;;;;;5015072;28;20403;-75
2021/08/27 12:53:28;;;;;;;0.70;0.60;;;21.30;99.90;;;;;;5014921;28;20407;-75
2021/08/27 12:56:12;;;;;;;1.33;0.60;;;21.50;99.90;;;;;;5014540;28;20569;-75